Time;durP1;ratioP1;P1;durP2;ratioP2;P2;SDS_P1;SDS_P2;PMS_P1;PMS_P2;Temp;Humidity;BMP_temperature;BMP_pressure;BME280_temperature;BME280_humidity;BME280_pressure;Samples;Min_cycle;Max_cycle;Signal;HPM_P1;HPM_P2
2022/06/09 00:00:16;;;;;;;8.23;5.28;;;;;;;18.22;100.00;96265.59;4727127;30;20064;-62
2022/06/09 00:02:47;;;;;;;6.30;5.18;;;;;;;18.52;100.00;96291.28;4725881;30;20421;-61
2022/06/09 00:05:14;;;;;;;7.05;4.82;;;;;;;18.55;100.00;96293.22;4727309;30;20072;-61
2022/06/09 00:07:43;;;;;;;7.13;5.85;;;;;;;18.32;100.00;96258.94;4727404;30;20056;-62
2022/06/09 00:10:24;;;;;;;7.40;5.32;;;;;;;18.18;100.00;96290.91;4726648;30;20068;-58
2022/06/09 00:12:50;;;;;;;7.85;5.93;;;;;;;18.14;100.00;96293.03;4727008;30;20068;-58
2022/06/09 00:15:17;;;;;;;9.65;5.25;;;;;;;17.93;100.00;96254.31;4726584;30;20075;-59
2022/06/09 00:17:44;;;;;;;7.05;5.43;;;;;;;18.32;100.00;96287.75;4725734;30;20064;-58
2022/06/09 00:20:13;;;;;;;7.78;4.80;;;;;;;18.44;100.00;96295.50;4725475;30;20065;-61
2022/06/09 00:22:40;;;;;;;5.47;4.93;;;;;;;18.22;100.00;96252.38;4727019;30;20060;-57
2022/06/09 00:25:07;;;;;;;5.90;5.32;;;;;;;18.51;100.00;96295.31;4726943;30;20064;-60
2022/06/09 00:27:34;;;;;;;6.53;5.25;;;;;;;18.40;100.00;96294.78;4726505;30;20076;-63
2022/06/09 00:30:04;;;;;;;6.32;5.15;;;;;;;18.26;100.00;96283.91;4725393;30;20068;-61
2022/06/09 00:32:31;;;;;;;8.95;6.30;;;;;;;18.38;100.00;96299.25;4725124;30;20061;-58
2022/06/09 00:34:58;;;;;;;7.70;5.47;;;;;;;18.04;100.00;96254.84;4726515;30;20453;-60
2022/06/09 00:37:24;;;;;;;8.15;6.00;;;;;;;18.45;100.00;96291.47;4726119;30;20056;-57
2022/06/09 00:39:51;;;;;;;8.75;6.80;;;;;;;17.84;100.00;96240.13;4726544;30;20263;-58
2022/06/09 00:42:18;;;;;;;6.85;5.85;;;;;;;17.59;100.00;96296.72;4725234;30;20065;-59
2022/06/09 00:44:44;;;;;;;8.95;7.20;;;;;;;17.41;100.00;96240.31;4726219;30;20060;-61
2022/06/09 00:47:23;;;;;;;9.32;6.53;;;;;;;16.54;100.00;96159.84;4726178;30;20139;-62
2022/06/09 00:49:54;;;;;;;8.68;6.28;;;;;;;17.37;100.00;96306.00;4725115;30;20075;-61
2022/06/09 00:52:24;;;;;;;8.85;7.03;;;;;;;17.56;100.00;96291.97;4736475;30;20525;-61
2022/06/09 00:54:58;;;;;;;6.78;6.07;;;;;;;17.36;100.00;96237.22;4725846;30;20060;-57
2022/06/09 00:57:34;;;;;;;8.10;6.18;;;;;;;17.94;100.00;96293.09;4726170;30;20069;-58
2022/06/09 01:00:09;;;;;;;8.50;6.47;;;;;;;17.83;100.00;96266.56;4724792;30;20064;-59
2022/06/09 01:02:36;;;;;;;13.52;8.15;;;;;;;17.83;100.00;96289.00;4726378;30;20068;-61
2022/06/09 01:05:05;;;;;;;7.78;6.40;;;;;;;17.98;100.00;96290.22;4725363;30;20377;-61
2022/06/09 01:07:38;;;;;;;7.22;5.88;;;;;;;17.63;100.00;96224.63;4724892;30;20068;-62
2022/06/09 01:10:05;;;;;;;7.90;6.05;;;;;;;18.16;100.00;96296.19;4726602;30;20159;-61
2022/06/09 01:12:35;;;;;;;7.65;6.53;;;;;;;18.10;100.00;96281.09;4726263;30;20063;-63
2022/06/09 01:15:10;;;;;;;8.88;5.90;;;;;;;18.31;100.00;96297.41;4726016;30;20060;-57
2022/06/09 01:17:54;;;;;;;6.68;5.60;;;;;;;17.87;100.00;96236.44;4726077;30;20510;-57
2022/06/09 01:20:51;;;;;;;7.40;5.68;;;;;;;18.35;100.00;96286.91;4725904;30;20072;-61
2022/06/09 01:23:41;;;;;;;9.07;6.07;;;;;;;18.29;100.00;96288.63;4726562;30;20151;-61
2022/06/09 01:26:27;;;;;;;6.55;5.90;;;;;;;17.98;100.00;96287.41;4724550;30;20092;-57
2022/06/09 01:29:28;;;;;;;6.15;5.13;;;;;;;18.13;100.00;96285.84;4725586;30;20065;-61
2022/06/09 01:32:06;;;;;;;10.73;5.43;;;;;;;18.30;100.00;96284.63;4711207;30;20292;-61
2022/06/09 01:34:39;;;;;;;7.90;5.72;;;;;;;18.22;100.00;96283.22;4726089;30;20064;-57
2022/06/09 01:37:15;;;;;;;8.90;5.43;;;;;;;18.15;100.00;96260.97;4725232;30;20541;-57
2022/06/09 01:39:50;;;;;;;6.40;5.45;;;;;;;18.16;100.00;96278.59;4725618;30;20061;-61
2022/06/09 01:42:25;;;;;;;7.07;5.70;;;;;;;18.15;100.00;96269.38;4725247;30;20064;-57
2022/06/09 01:44:56;;;;;;;8.52;5.90;;;;;;;18.21;100.00;96284.44;4725784;30;20065;-61
2022/06/09 01:47:29;;;;;;;7.47;5.90;;;;;;;18.09;100.00;96279.53;4725541;30;20083;-57
2022/06/09 01:49:58;;;;;;;6.95;6.25;;;;;;;17.75;100.00;96287.56;4726318;30;20068;-61
2022/06/09 01:52:26;;;;;;;6.57;5.40;;;;;;;17.02;100.00;96233.97;4729381;30;20072;-58
2022/06/09 01:54:55;;;;;;;7.70;6.22;;;;;;;16.95;100.00;96262.09;4741663;30;20095;-57
2022/06/09 01:57:28;;;;;;;9.63;6.07;;;;;;;16.88;100.00;96279.03;4756377;30;20068;-57
2022/06/09 02:00:08;;;;;;;8.68;6.60;;;;;;;16.82;100.00;96283.56;4743531;30;20068;-58
2022/06/09 02:02:45;;;;;;;8.57;6.25;;;;;;;16.75;100.00;96276.09;4756415;30;20079;-57
2022/06/09 02:05:19;;;;;;;7.90;6.68;;;;;;;17.02;100.00;96293.53;4743064;30;20060;-62
2022/06/09 02:07:47;;;;;;;9.25;6.30;;;;;;;17.13;100.00;96263.31;4743248;30;20079;-59
2022/06/09 02:10:39;;;;;;;7.43;6.50;;;;;;;17.40;100.00;96279.94;4756434;30;20064;-61
2022/06/09 02:13:09;;;;;;;6.95;6.05;;;;;;;16.84;100.00;96186.78;4743105;30;20060;-61
2022/06/09 02:15:43;;;;;;;7.22;5.78;;;;;;;17.63;100.00;96275.03;4742820;30;20162;-62
2022/06/09 02:18:16;;;;;;;7.35;6.05;;;;;;;17.56;100.00;96269.56;4756952;30;20060;-60
2022/06/09 02:20:50;;;;;;;7.70;6.70;;;;;;;17.40;100.00;96227.50;4743261;30;20067;-60
2022/06/09 02:23:17;;;;;;;;;;;;;;;17.74;100.00;96277.56;4743507;30;20517;-61
2022/06/09 02:25:44;;;;;;;7.90;5.55;;;;;;;17.69;100.00;96278.09;4743289;30;20739;-57
2022/06/09 02:28:11;;;;;;;7.18;5.40;;;;;;;17.65;100.00;96283.00;4744805;30;20060;-57
2022/06/09 02:30:38;;;;;;;7.90;5.82;;;;;;;17.64;100.00;96287.03;4746213;30;20060;-57
2022/06/09 02:33:17;;;;;;;5.97;5.00;;;;;;;17.75;100.00;96287.56;4746392;30;20146;-61
2022/06/09 02:35:46;;;;;;;6.43;5.22;;;;;;;17.64;100.00;96281.44;4746183;30;21313;-60
2022/06/09 02:38:14;;;;;;;6.43;5.35;;;;;;;17.09;100.00;96189.03;4744951;30;20440;-57
2022/06/09 02:40:40;;;;;;;6.75;5.45;;;;;;;17.77;100.00;96274.69;4746192;30;20480;-61
2022/06/09 02:43:07;;;;;;;5.57;4.72;;;;;;;17.63;100.00;96280.63;4746212;30;20076;-62
2022/06/09 02:45:35;;;;;;;6.60;5.55;;;;;;;17.77;100.00;96265.50;4745605;30;20147;-62
2022/06/09 02:48:02;;;;;;;5.95;5.15;;;;;;;18.03;100.00;96281.28;4746117;30;20591;-61
2022/06/09 02:50:30;;;;;;;7.00;5.40;;;;;;;17.93;100.00;96285.13;4745896;30;20075;-57
2022/06/09 02:52:59;;;;;;;6.72;4.57;;;;;;;17.63;100.00;96223.81;4745876;30;20060;-57
2022/06/09 02:55:27;;;;;;;7.18;5.32;;;;;;;18.03;100.00;96284.09;4758618;30;20063;-57
2022/06/09 02:57:53;;;;;;;6.40;5.55;;;;;;;17.87;100.00;96284.06;4745489;30;20071;-61
2022/06/09 03:00:21;;;;;;;5.28;4.78;;;;;;;17.93;100.00;96287.94;4745760;30;20532;-61
2022/06/09 03:02:59;;;;;;;5.82;4.97;;;;;;;17.92;100.00;96297.56;4744532;30;20453;-57
2022/06/09 03:05:28;;;;;;;9.63;5.15;;;;;;;17.85;100.00;96275.31;4759286;30;20056;-58
2022/06/09 03:07:55;;;;;;;7.20;4.93;;;;;;;17.44;100.00;96221.84;4744430;30;20067;-61
2022/06/09 03:10:23;;;;;;;5.38;4.88;;;;;;;17.67;100.00;96263.75;4745745;30;20079;-62
2022/06/09 03:12:50;;;;;;;6.60;5.28;;;;;;;17.73;100.00;96239.59;4745647;30;20079;-61
2022/06/09 03:15:19;;;;;;;6.47;5.63;;;;;;;18.06;100.00;96286.03;4745484;30;20470;-57
2022/06/09 03:17:46;;;;;;;6.55;5.22;;;;;;;18.18;100.00;96293.72;4745072;30;20064;-60
2022/06/09 03:20:17;;;;;;;5.88;4.70;;;;;;;18.21;100.00;96297.69;4745508;30;20082;-57
2022/06/09 03:22:43;;;;;;;6.63;5.22;;;;;;;18.28;99.61;96281.47;4745436;30;20064;-59
2022/06/09 03:25:10;;;;;;;7.20;5.10;;;;;;;18.55;98.37;96301.63;4745654;30;20068;-57
2022/06/09 03:27:37;;;;;;;6.63;4.32;;;;;;;18.79;95.80;96291.78;4745453;30;20091;-62
2022/06/09 03:30:05;;;;;;;5.53;4.88;;;;;;;18.89;95.40;96299.09;4745363;30;20071;-62
2022/06/09 03:32:32;;;;;;;4.82;4.32;;;;;;;18.73;92.66;96228.97;4743816;30;20083;-58
2022/06/09 03:34:58;;;;;;;5.57;4.88;;;;;;;18.81;91.97;96235.97;4745453;30;20068;-58
2022/06/09 03:37:25;;;;;;;5.20;4.70;;;;;;;18.99;91.25;96246.69;4743410;30;20076;-57
2022/06/09 03:39:52;;;;;;;5.55;4.57;;;;;;;19.51;90.38;96289.31;4744654;30;20064;-57
2022/06/09 03:42:18;;;;;;;4.85;4.13;;;;;;;19.63;89.86;96290.59;4743971;30;20064;-58
2022/06/09 03:44:46;;;;;;;4.95;4.47;;;;;;;19.23;88.42;96217.91;4745516;30;20060;-58
2022/06/09 03:47:13;;;;;;;4.47;4.00;;;;;;;19.96;86.79;96303.19;4757802;30;20108;-57
2022/06/09 03:49:40;;;;;;;5.70;4.15;;;;;;;19.42;85.13;96191.69;4758209;30;20067;-57
2022/06/09 03:52:08;;;;;;;7.45;5.30;;;;;;;20.15;84.81;96305.03;4743293;30;20153;-60
2022/06/09 03:54:36;;;;;;;7.78;4.60;;;;;;;19.98;84.94;96273.38;4744977;30;20091;-57
2022/06/09 03:57:04;;;;;;;8.38;5.93;;;;;;;19.54;84.53;96221.78;4757722;30;20064;-61
2022/06/09 03:59:30;;;;;;;7.18;5.53;;;;;;;20.01;85.28;96294.22;4745379;30;20056;-58
2022/06/09 04:01:57;;;;;;;6.20;5.05;;;;;;;19.64;85.26;96235.94;4744345;30;20072;-62
2022/06/09 04:04:24;;;;;;;6.82;5.93;;;;;;;20.13;85.53;96294.19;4744415;30;20128;-61
2022/06/09 04:06:52;;;;;;;7.25;4.28;;;;;;;19.86;87.39;96287.44;4744522;30;20493;-57
2022/06/09 04:09:19;;;;;;;6.22;5.60;;;;;;;19.83;87.42;96277.09;4743708;30;20091;-57
2022/06/09 04:11:46;;;;;;;6.88;4.93;;;;;;;19.87;87.77;96286.22;4744396;30;20495;-61
2022/06/09 04:14:13;;;;;;;6.93;5.70;;;;;;;20.04;86.48;96293.31;4744383;30;20090;-62
2022/06/09 04:16:44;;;;;;;5.18;4.57;;;;;;;20.25;86.03;96292.66;4744759;30;20449;-57
2022/06/09 04:19:16;;;;;;;5.38;4.72;;;;;;;20.12;84.64;96235.59;4757706;30;20109;-57
2022/06/09 04:21:44;;;;;;;6.15;5.45;;;;;;;20.44;84.57;96275.50;4744316;30;20085;-57
2022/06/09 04:24:11;;;;;;;8.43;5.00;;;;;;;20.08;87.86;96277.09;4757316;30;20060;-58
2022/06/09 04:26:40;;;;;;;6.80;5.57;;;;;;;20.14;86.37;96259.25;4742600;30;20379;-58
2022/06/09 04:29:11;;;;;;;7.47;5.35;;;;;;;19.97;84.88;96195.13;4743744;30;20064;-61
2022/06/09 04:31:40;;;;;;;7.25;5.55;;;;;;;20.37;84.43;96270.13;4757554;30;20064;-58
2022/06/09 04:34:07;;;;;;;6.35;5.13;;;;;;;20.89;83.50;96286.41;4757148;30;20060;-62
2022/06/09 04:36:34;;;;;;;6.53;5.47;;;;;;;21.18;80.98;96281.38;4744048;30;20525;-60
2022/06/09 04:39:03;;;;;;;35.42;7.95;;;;;;;21.34;80.58;96271.94;4744499;30;20072;-61
2022/06/09 04:41:29;;;;;;;6.00;5.10;;;;;;;21.39;79.10;96277.75;4743970;30;20477;-60
2022/06/09 04:43:57;;;;;;;5.47;4.93;;;;;;;21.35;79.23;96263.03;4744247;30;20474;-58
2022/06/09 04:46:25;;;;;;;6.20;5.55;;;;;;;21.58;78.10;96281.47;4743956;30;20056;-62
2022/06/09 04:48:52;;;;;;;6.95;4.95;;;;;;;21.71;77.24;96282.97;4744184;30;20063;-60
2022/06/09 04:51:21;;;;;;;7.63;5.43;;;;;;;21.87;77.26;96277.13;4741692;30;20064;-59
2022/06/09 04:53:49;;;;;;;7.10;5.30;;;;;;;22.03;76.02;96273.28;4743963;30;20068;-65
2022/06/09 04:56:17;;;;;;;6.32;5.30;;;;;;;22.22;74.88;96275.69;4743535;30;20063;-65
2022/06/09 04:58:45;;;;;;;5.45;4.60;;;;;;;21.32;79.02;96275.22;4748266;30;20576;-64
2022/06/09 05:01:24;;;;;;;8.25;5.35;;;;;;;21.47;76.94;96281.88;4741826;30;20505;-64
2022/06/09 05:03:51;;;;;;;6.22;5.25;;;;;;;21.50;78.23;96263.28;4744019;30;20056;-64
2022/06/09 05:06:20;;;;;;;11.25;5.75;;;;;;;21.55;77.74;96263.44;4742047;30;20537;-62
2022/06/09 05:08:48;;;;;;;6.28;5.72;;;;;;;21.75;76.37;96263.88;4744233;30;20067;-62
2022/06/09 05:11:15;;;;;;;8.52;5.50;;;;;;;21.72;75.91;96253.50;4743183;30;20067;-62
2022/06/09 05:13:42;;;;;;;8.93;5.53;;;;;;;22.08;75.25;96273.44;4743650;30;20059;-64
2022/06/09 05:16:09;;;;;;;7.85;5.38;;;;;;;22.19;74.04;96268.16;4743436;30;20540;-56
2022/06/09 05:18:37;;;;;;;6.50;5.00;;;;;;;22.24;72.33;96259.06;4731170;30;20064;-57
2022/06/09 05:21:05;;;;;;;7.05;5.28;;;;;;;22.59;71.56;96267.34;4743174;30;20517;-63
2022/06/09 05:23:33;;;;;;;6.20;5.40;;;;;;;22.20;71.37;96185.09;4742381;30;20433;-58
2022/06/09 05:26:03;;;;;;;6.55;4.65;;;;;;;22.72;71.33;96267.97;4743448;30;20071;-60
2022/06/09 05:28:31;;;;;;;6.50;5.72;;;;;;;22.48;71.36;96243.16;4741822;30;20059;-64
2022/06/09 05:30:59;;;;;;;8.10;5.85;;;;;;;22.36;73.06;96258.19;4743266;30;20067;-64
2022/06/09 05:33:26;;;;;;;6.03;4.95;;;;;;;22.43;73.03;96251.44;4743603;30;20405;-57
2022/06/09 05:35:54;;;;;;;6.45;5.78;;;;;;;20.98;71.73;95987.28;4743419;30;20108;-57
2022/06/09 05:46:44;;;;;;;6.80;5.38;;;;;;;22.75;69.33;96193.63;4742334;30;20072;-58
2022/06/09 05:49:18;;;;;;;5.70;5.18;;;;;;;23.50;68.36;96260.47;4742476;30;20064;-62
2022/06/09 05:51:48;;;;;;;6.70;5.18;;;;;;;23.57;67.36;96248.81;4739210;30;20064;-63
2022/06/09 05:54:15;;;;;;;6.57;5.72;;;;;;;23.95;66.51;96266.00;4742425;30;20543;-63
2022/06/09 05:56:42;;;;;;;6.20;5.57;;;;;;;23.10;65.89;96147.63;4739280;30;20063;-58
2022/06/09 05:59:08;;;;;;;8.07;5.60;;;;;;;22.48;70.63;96190.78;4738544;30;20068;-62
2022/06/09 06:01:35;;;;;;;7.10;5.15;;;;;;;22.98;69.34;96241.03;4740058;30;20063;-67
2022/06/09 06:04:04;;;;;;;6.60;5.50;;;;;;;23.82;67.90;96265.44;4745067;30;20425;-62
2022/06/09 06:06:34;;;;;;;5.90;5.40;;;;;;;24.16;66.13;96270.66;4744486;30;20052;-60
2022/06/09 06:09:13;;;;;;;7.22;5.55;;;;;;;24.33;65.06;96277.50;4743780;30;20133;-57
2022/06/09 06:11:41;;;;;;;8.73;5.55;;;;;;;23.94;66.37;96261.59;4745209;30;20064;-65
2022/06/09 06:14:08;;;;;;;7.65;4.97;;;;;;;24.30;64.99;96261.47;4746908;30;20062;-57
2022/06/09 06:16:36;;;;;;;5.88;5.30;;;;;;;24.84;63.42;96255.50;4744903;30;20121;-61
2022/06/09 06:19:05;;;;;;;5.32;4.70;;;;;;;25.18;61.99;96259.81;4745044;30;20597;-64
2022/06/09 06:21:34;;;;;;;5.82;4.80;;;;;;;24.45;63.41;96239.69;4746088;30;20068;-63
2022/06/09 06:24:01;;;;;;;6.50;4.95;;;;;;;23.46;67.66;96237.22;4744636;30;20080;-63
2022/06/09 06:26:27;;;;;;;7.88;6.15;;;;;;;23.67;65.52;96146.53;4744524;30;20095;-59
2022/06/09 06:28:54;;;;;;;9.30;5.88;;;;;;;24.15;65.72;96265.47;4746465;30;20071;-58
2022/06/09 06:31:21;;;;;;;8.10;5.90;;;;;;;23.88;67.02;96258.63;4745365;30;20087;-58
2022/06/09 06:33:48;;;;;;;6.90;6.10;;;;;;;23.72;67.19;96249.72;4758045;30;20182;-58
2022/06/09 06:36:14;;;;;;;7.60;6.13;;;;;;;23.38;69.87;96255.75;4743895;30;20060;-64
2022/06/09 06:38:41;;;;;;;8.73;6.25;;;;;;;24.03;66.66;96250.28;4745281;30;20060;-67
2022/06/09 06:41:11;;;;;;;6.82;5.60;;;;;;;23.98;65.90;96256.56;4744373;30;20072;-67
2022/06/09 06:43:44;;;;;;;7.28;6.47;;;;;;;24.27;64.60;96258.81;4743812;30;20087;-56
2022/06/09 06:46:11;;;;;;;8.18;6.10;;;;;;;24.29;64.72;96265.56;4743835;30;20579;-63
2022/06/09 06:48:38;;;;;;;8.45;7.53;;;;;;;24.27;63.48;96262.44;4746210;30;20064;-63
2022/06/09 06:51:08;;;;;;;9.00;7.00;;;;;;;24.37;62.92;96246.97;4745503;30;20056;-63
2022/06/09 06:53:36;;;;;;;12.18;9.80;;;;;;;24.44;61.83;96254.34;4742041;30;20067;-62
2022/06/09 06:56:03;;;;;;;11.45;9.63;;;;;;;24.10;62.92;96224.47;4744841;30;20225;-57
2022/06/09 06:58:30;;;;;;;14.20;10.07;;;;;;;24.64;61.90;96258.16;4745641;30;20071;-61
2022/06/09 07:00:59;;;;;;;10.27;8.63;;;;;;;24.78;61.55;96246.13;4745621;30;20070;-57
2022/06/09 07:03:29;;;;;;;9.02;8.13;;;;;;;24.82;61.20;96246.69;4744057;30;20675;-61
2022/06/09 07:06:00;;;;;;;11.45;7.68;;;;;;;24.64;61.84;96241.16;4745433;30;20068;-56
2022/06/09 07:08:27;;;;;;;8.77;7.88;;;;;;;25.01;60.79;96245.28;4745447;30;20532;-60
2022/06/09 07:10:55;;;;;;;8.00;7.03;;;;;;;24.65;61.27;96186.06;4745290;30;20546;-56
2022/06/09 07:13:22;;;;;;;12.60;7.88;;;;;;;24.52;61.89;96193.22;4742246;30;20052;-57
2022/06/09 07:15:49;;;;;;;9.70;7.28;;;;;;;25.09;62.04;96220.97;4739874;30;20064;-62
2022/06/09 07:18:16;;;;;;;11.93;9.02;;;;;;;25.62;59.37;96234.38;4743431;30;20087;-62
2022/06/09 07:20:43;;;;;;;14.30;8.75;;;;;;;25.98;58.24;96234.72;4744383;30;20063;-56
2022/06/09 07:23:10;;;;;;;11.35;8.07;;;;;;;26.23;57.09;96239.81;4740671;30;20433;-62
2022/06/09 07:25:37;;;;;;;10.25;9.25;;;;;;;26.11;56.60;96231.59;4744749;30;20528;-68
2022/06/09 07:28:04;;;;;;;13.35;9.38;;;;;;;26.04;55.95;96243.34;4741549;30;20508;-66
2022/06/09 07:30:31;;;;;;;13.48;9.50;;;;;;;25.80;55.79;96188.78;4741797;30;20526;-66
2022/06/09 07:32:58;;;;;;;12.07;9.00;;;;;;;25.21;58.18;96199.31;4743614;30;20087;-65
2022/06/09 07:35:28;;;;;;;11.23;9.38;;;;;;;24.61;61.13;96225.09;4744913;30;20064;-63
2022/06/09 07:37:56;;;;;;;9.63;8.65;;;;;;;25.66;58.39;96229.25;4744462;30;20071;-61
2022/06/09 07:40:22;;;;;;;9.10;8.15;;;;;;;25.85;57.51;96231.41;4742007;30;20056;-56
2022/06/09 07:42:50;;;;;;;8.57;7.72;;;;;;;25.96;57.52;96230.81;4742375;30;20145;-57
2022/06/09 07:45:18;;;;;;;9.05;7.88;;;;;;;26.03;57.46;96221.94;4741883;30;20555;-56
2022/06/09 07:47:45;;;;;;;7.90;7.10;;;;;;;25.54;57.56;96187.78;4756774;30;20164;-57
2022/06/09 07:50:13;;;;;;;9.93;7.75;;;;;;;25.34;58.89;96231.00;4744510;30;20528;-63
2022/06/09 07:52:45;;;;;;;11.32;9.18;;;;;;;24.83;60.60;96225.59;4742206;30;20064;-57
2022/06/09 07:55:14;;;;;;;10.68;8.40;;;;;;;25.37;60.30;96226.44;4743988;30;20064;-67
2022/06/09 07:57:41;;;;;;;9.20;7.47;;;;;;;25.27;60.81;96226.50;4743088;30;20461;-64
2022/06/09 08:00:10;;;;;;;8.68;7.85;;;;;;;25.59;59.08;96218.31;4758361;30;20099;-63
2022/06/09 08:02:37;;;;;;;8.75;7.85;;;;;;;25.82;58.15;96220.25;4744613;30;20075;-64
2022/06/09 08:05:05;;;;;;;8.98;8.07;;;;;;;25.97;57.37;96204.00;4744519;30;20060;-63
2022/06/09 08:07:32;;;;;;;8.63;7.80;;;;;;;26.34;56.89;96205.09;4744542;30;20071;-57
2022/06/09 08:09:59;;;;;;;9.32;7.07;;;;;;;26.38;54.54;96182.97;4744401;30;20217;-57
2022/06/09 08:12:25;;;;;;;9.52;8.00;;;;;;;26.43;54.56;96190.78;4744216;30;20622;-55
2022/06/09 08:14:52;;;;;;;8.63;7.78;;;;;;;26.63;55.29;96210.69;4744059;30;20067;-64
2022/06/09 08:17:19;;;;;;;8.45;7.65;;;;;;;26.92;54.67;96210.56;4744473;30;20064;-59
2022/06/09 08:19:47;;;;;;;8.10;7.28;;;;;;;26.85;53.33;96211.00;4744793;30;20071;-56
2022/06/09 08:22:15;;;;;;;8.80;7.90;;;;;;;26.39;53.65;96122.81;4754895;30;20254;-58
2022/06/09 08:24:42;;;;;;;8.55;7.75;;;;;;;26.70;54.01;96201.75;4740497;30;20060;-58
2022/06/09 08:27:09;;;;;;;8.68;7.47;;;;;;;25.87;56.37;96211.06;4744403;30;20062;-57
2022/06/09 08:29:37;;;;;;;8.60;7.50;;;;;;;26.55;55.06;96209.53;4742862;30;20163;-65
2022/06/09 08:32:05;;;;;;;8.50;7.60;;;;;;;26.69;53.42;96208.72;4743280;30;20072;-57
2022/06/09 08:34:33;;;;;;;9.73;8.25;;;;;;;26.31;54.24;96166.34;4742358;30;20064;-66
2022/06/09 08:37:00;;;;;;;8.70;7.10;;;;;;;26.09;54.88;96161.13;4742513;30;20279;-58
2022/06/09 08:39:27;;;;;;;8.90;7.53;;;;;;;26.51;53.98;96203.28;4743225;30;20059;-65
2022/06/09 08:42:00;;;;;;;13.25;9.15;;;;;;;26.67;53.22;96188.53;4740563;30;20184;-58
2022/06/09 08:44:49;;;;;;;8.18;6.97;;;;;;;25.68;54.68;96169.97;4743721;30;20520;-58
2022/06/09 08:47:28;;;;;;;8.23;7.03;;;;;;;26.58;53.56;96186.59;4741925;30;20063;-61
2022/06/09 08:50:21;;;;;;;7.90;7.13;;;;;;;27.09;51.41;96183.13;4732023;30;20067;-61
2022/06/09 08:52:58;;;;;;;13.20;8.18;;;;;;;26.90;51.98;96179.03;4741297;30;20064;-57
2022/06/09 08:55:32;;;;;;;8.73;6.55;;;;;;;27.81;47.76;96173.25;4754229;30;20064;-65
2022/06/09 08:58:10;;;;;;;7.57;6.88;;;;;;;27.99;48.04;96172.91;4740028;30;20401;-63
2022/06/09 09:00:41;;;;;;;8.25;7.45;;;;;;;28.39;48.58;96171.09;4745813;30;20067;-60
2022/06/09 09:03:34;;;;;;;7.68;6.97;;;;;;;28.78;47.86;96157.84;4740708;30;20091;-63
2022/06/09 09:06:14;;;;;;;8.02;7.05;;;;;;;28.96;46.79;96143.13;4736537;30;20060;-55
2022/06/09 09:08:41;;;;;;;7.03;6.32;;;;;;;28.83;46.14;96131.41;4740723;30;20086;-63
2022/06/09 09:11:30;;;;;;;6.65;6.03;;;;;;;28.94;45.34;96157.13;4735012;30;20520;-58
2022/06/09 09:14:05;;;;;;;7.00;6.15;;;;;;;29.15;43.87;96136.47;4731362;30;20146;-57
2022/06/09 09:16:32;;;;;;;7.38;6.68;;;;;;;28.41;45.21;96145.69;4721589;30;20066;-56
2022/06/09 09:19:24;;;;;;;7.32;6.18;;;;;;;27.07;48.65;96142.25;4735964;30;20473;-58
2022/06/09 09:22:17;;;;;;;6.30;5.78;;;;;;;27.74;47.55;96139.53;4720907;30;20083;-57
2022/06/09 09:24:53;;;;;;;7.32;6.63;;;;;;;27.14;49.26;96136.88;4722365;30;20071;-57
2022/06/09 09:27:39;;;;;;;6.80;6.10;;;;;;;27.74;48.48;96139.53;4724882;30;20153;-58
2022/06/09 09:30:27;;;;;;;7.38;6.15;;;;;;;28.56;46.91;96127.16;4724256;30;20056;-57
2022/06/09 09:32:55;;;;;;;6.15;5.53;;;;;;;28.81;45.12;96122.59;4719473;30;20067;-63
2022/06/09 09:35:23;;;;;;;6.47;5.35;;;;;;;28.55;44.42;96117.03;4716219;30;20063;-64
2022/06/09 09:37:55;;;;;;;6.95;6.30;;;;;;;27.33;48.30;96120.31;4721037;30;20087;-56
2022/06/09 09:40:50;;;;;;;6.03;5.53;;;;;;;26.64;49.09;96127.03;4717597;30;20084;-66
2022/06/09 09:43:23;;;;;;;7.40;6.60;;;;;;;26.69;50.14;96118.56;4720631;30;20071;-63
2022/06/09 09:45:54;;;;;;;6.40;5.82;;;;;;;26.20;49.33;96126.44;4731434;30;20065;-66
2022/06/09 09:48:21;;;;;;;6.30;5.70;;;;;;;26.11;49.80;96118.84;4723137;30;20064;-57
2022/06/09 09:51:00;;;;;;;6.22;5.63;;;;;;;25.74;49.37;96078.00;4720477;30;20061;-57
2022/06/09 09:53:36;;;;;;;5.85;5.30;;;;;;;26.32;48.71;96128.16;4720647;30;20068;-64
2022/06/09 09:56:14;;;;;;;7.35;5.43;;;;;;;26.23;49.19;96136.78;4719823;30;20545;-63
2022/06/09 09:58:46;;;;;;;5.80;5.28;;;;;;;26.80;48.14;96134.97;4726012;30;20064;-64
2022/06/09 10:10:37;;;;;;;5.43;4.50;;;;;;;24.52;53.34;96120.38;4687633;30;20918;-64
2022/06/09 10:13:15;;;;;;;5.60;4.28;;;;;;;24.20;53.79;96112.75;4683380;30;20069;-63
2022/06/09 10:16:02;;;;;;;3.58;3.08;;;;;;;23.34;52.61;96043.16;4687239;30;20060;-65
2022/06/09 10:18:53;;;;;;;5.70;3.70;;;;;;;23.88;52.89;96105.09;4687650;30;20104;-64
2022/06/09 10:21:53;;;;;;;3.75;3.38;;;;;;;24.13;51.95;96110.31;4684574;30;20061;-64
2022/06/09 10:24:37;;;;;;;3.47;2.75;;;;;;;24.32;52.14;96145.72;4687302;30;20073;-65
2022/06/09 10:27:11;;;;;;;2.97;2.78;;;;;;;24.66;51.54;96142.31;4687111;30;20069;-64
2022/06/09 10:29:59;;;;;;;3.65;3.25;;;;;;;24.78;51.38;96152.63;4687916;30;20058;-64
2022/06/09 10:32:33;;;;;;;8.13;6.65;;;;;;;24.40;64.07;96149.75;4705479;30;20095;-63
2022/06/09 10:35:09;;;;;;;7.15;5.65;;;;;;;23.52;68.02;96145.63;4738183;30;20061;-63
2022/06/09 10:37:39;;;;;;;21.77;6.78;;;;;;;22.16;79.11;96163.94;4721275;30;20068;-58
2022/06/09 10:40:19;;;;;;;12.82;7.20;;;;;;;21.38;89.60;96166.28;4736097;30;20538;-56
2022/06/09 10:42:46;;;;;;;16.33;7.05;;;;;;;20.95;95.54;96155.84;4725394;30;20624;-61
2022/06/09 10:45:22;;;;;;;16.95;6.78;;;;;;;19.68;100.00;96160.78;4721421;30;20072;-60
2022/06/09 10:57:26;;;;;;;9.20;6.13;;;;;;;19.68;100.00;96155.16;4726657;30;20065;-55
2022/06/09 10:59:59;;;;;;;10.25;6.57;;;;;;;19.70;100.00;96173.13;4728783;30;20068;-62
2022/06/09 11:02:28;;;;;;;12.48;7.25;;;;;;;19.73;100.00;96168.63;4728517;30;20065;-62
2022/06/09 11:04:57;;;;;;;10.75;7.47;;;;;;;19.39;100.00;96102.69;4728174;30;20060;-62
2022/06/09 11:07:45;;;;;;;12.45;7.72;;;;;;;19.84;100.00;96172.66;4726455;30;20069;-56
2022/06/09 11:10:23;;;;;;;16.10;8.52;;;;;;;19.90;100.00;96175.69;4727894;30;20057;-63
2022/06/09 11:13:17;;;;;;;12.88;9.35;;;;;;;19.98;100.00;96172.19;4727521;30;20489;-56
2022/06/09 11:15:47;;;;;;;;;;;;;;;19.93;98.96;96180.41;4726832;30;20057;-62
2022/06/09 11:18:16;;;;;;;10.52;6.75;;;;;;;19.75;98.81;96183.00;4727885;30;19937;-62
2022/06/09 11:20:58;;;;;;;10.20;7.38;;;;;;;19.73;100.00;96182.69;4727494;30;20069;-56
2022/06/09 11:23:41;;;;;;;9.02;6.60;;;;;;;19.93;100.00;96181.22;4727779;30;20068;-65
2022/06/09 11:26:13;;;;;;;14.35;7.10;;;;;;;20.07;100.00;96191.19;4728357;30;20075;-63
2022/06/09 11:29:04;;;;;;;9.93;6.38;;;;;;;19.17;100.00;96104.56;4727637;30;20076;-63
2022/06/09 11:31:50;;;;;;;9.60;6.43;;;;;;;19.48;100.00;96206.75;4740722;30;20449;-64
2022/06/09 11:34:27;;;;;;;9.15;6.82;;;;;;;19.26;100.00;96216.22;4727950;30;20073;-57
2022/06/09 11:37:00;;;;;;;8.40;6.20;;;;;;;19.31;100.00;96224.94;4727455;30;20099;-57
2022/06/09 11:39:42;;;;;;;10.63;7.22;;;;;;;19.20;100.00;96218.03;4727647;30;20064;-62
2022/06/09 11:42:29;;;;;;;8.93;6.50;;;;;;;18.92;100.00;96166.28;4727176;30;20072;-63
2022/06/09 11:44:59;;;;;;;10.25;7.25;;;;;;;19.29;100.00;96209.75;4726084;30;20175;-56
2022/06/09 11:47:34;;;;;;;12.40;7.07;;;;;;;19.27;100.00;96215.78;4727734;30;20414;-56
2022/06/09 11:50:06;;;;;;;9.35;7.30;;;;;;;19.01;100.00;96165.66;4725861;30;20060;-62
2022/06/09 11:52:41;;;;;;;12.73;7.13;;;;;;;18.72;100.00;96154.47;4727577;30;20167;-63
2022/06/09 11:58:33;;;;;;;10.65;7.00;;;;;;;18.86;100.00;96198.97;4727528;30;20164;-63
2022/06/09 12:01:43;;;;;;;11.88;8.32;;;;;;;18.79;100.00;96199.19;4727094;30;20076;-61
2022/06/09 12:04:34;;;;;;;20.45;6.68;;;;;;;18.63;100.00;96196.41;4736769;30;20108;-64
2022/06/09 12:07:19;;;;;;;9.43;6.10;;;;;;;18.66;100.00;96184.31;4737127;30;20057;-56
2022/06/09 12:09:59;;;;;;;8.10;5.90;;;;;;;18.38;100.00;96167.44;4725831;30;20082;-63
2022/06/09 12:12:37;;;;;;;10.65;5.93;;;;;;;16.69;100.00;95885.50;4726836;30;20068;-59
2022/06/09 12:15:22;;;;;;;6.75;4.88;;;;;;;18.66;100.00;96192.72;4725862;30;20064;-61
2022/06/09 12:17:52;;;;;;;9.18;6.30;;;;;;;18.86;100.00;96198.97;4720721;30;20075;-58
2022/06/09 12:20:37;;;;;;;6.55;5.70;;;;;;;18.92;100.00;96202.00;4707566;30;20057;-58